Time;durP1;ratioP1;P1;durP2;ratioP2;P2;SDS_P1;SDS_P2;PMS_P1;PMS_P2;Temp;Humidity;BMP_temperature;BMP_pressure;BME280_temperature;BME280_humidity;BME280_pressure;Samples;Min_cycle;Max_cycle;Signal;HPM_P1;HPM_P2
2023/10/02 00:01:06;;;;;;;21.30;11.20;;;19.70;63.40;;;;;;5045589;28;20671;-33
2023/10/02 00:03:39;;;;;;;18.67;10.77;;;19.70;63.40;;;;;;5045145;28;20645;-32
2023/10/02 00:06:11;;;;;;;19.98;10.38;;;19.70;63.40;;;;;;5045142;28;20216;-33
2023/10/02 00:08:42;;;;;;;20.80;10.77;;;19.70;63.40;;;;;;5045002;28;20184;-33
2023/10/02 00:11:35;;;;;;;19.25;11.10;;;19.70;63.90;;;;;;5044111;28;20197;-32
2023/10/02 00:14:20;;;;;;;21.88;10.98;;;19.70;63.60;;;;;;5045526;28;20682;-33
2023/10/02 00:17:06;;;;;;;20.60;11.25;;;19.70;63.50;;;;;;5043866;28;20200;-32
2023/10/02 00:19:45;;;;;;;19.10;10.45;;;19.60;63.60;;;;;;5045485;28;20275;-33
2023/10/02 00:22:35;;;;;;;19.65;10.48;;;19.60;63.60;;;;;;5045628;28;20561;-33
2023/10/02 00:25:13;;;;;;;19.52;11.00;;;19.60;63.50;;;;;;5045090;28;20290;-33
2023/10/02 00:27:43;;;;;;;18.58;10.73;;;19.60;63.60;;;;;;5045046;28;20204;-33
2023/10/02 00:30:13;;;;;;;18.88;10.60;;;19.60;63.60;;;;;;5045489;28;20200;-33
2023/10/02 00:32:45;;;;;;;22.00;10.95;;;19.50;63.60;;;;;;5045133;28;20200;-32
2023/10/02 00:35:13;;;;;;;18.05;10.80;;;19.50;63.60;;;;;;5044917;28;20287;-33
2023/10/02 00:37:45;;;;;;;20.05;11.05;;;19.50;63.60;;;;;;5045245;28;20207;-33
2023/10/02 00:40:22;;;;;;;21.00;11.27;;;19.50;63.60;;;;;;5027832;28;20198;-33
2023/10/02 00:42:55;;;;;;;20.00;10.63;;;19.50;63.70;;;;;;5045156;28;20713;-33
2023/10/02 00:45:38;;;;;;;18.55;10.25;;;19.40;63.70;;;;;;5047419;28;20283;-33
2023/10/02 00:48:25;;;;;;;20.02;10.93;;;19.40;63.70;;;;;;5049575;28;20207;-33
2023/10/02 00:50:58;;;;;;;20.05;10.65;;;19.40;63.70;;;;;;5047944;28;20220;-33
2023/10/02 00:53:42;;;;;;;18.42;11.00;;;19.40;63.70;;;;;;5049168;28;20696;-32
2023/10/02 00:56:21;;;;;;;21.88;11.95;;;19.40;63.80;;;;;;5049336;28;20200;-32
2023/10/02 00:58:54;;;;;;;19.67;10.63;;;19.30;63.70;;;;;;5036181;28;20262;-32
2023/10/02 01:01:24;;;;;;;19.52;10.98;;;19.30;63.80;;;;;;5028125;28;20250;-33
2023/10/02 01:04:11;;;;;;;21.55;11.18;;;19.30;63.90;;;;;;5034249;28;20230;-33
2023/10/02 01:09:34;;;;;;;18.38;10.80;;;19.30;63.90;;;;;;5044067;28;20270;-32
2023/10/02 01:12:05;;;;;;;20.05;11.07;;;19.20;63.90;;;;;;5048491;28;20655;-32
2023/10/02 01:14:50;;;;;;;17.23;10.45;;;19.20;63.90;;;;;;5045832;28;20223;-33
2023/10/02 01:17:21;;;;;;;19.15;10.77;;;19.20;64.00;;;;;;5038128;28;20208;-33
2023/10/02 01:19:53;;;;;;;20.58;11.00;;;19.20;64.00;;;;;;5048134;28;20204;-32
2023/10/02 01:22:28;;;;;;;18.38;10.48;;;19.20;64.10;;;;;;5046823;28;20221;-32
2023/10/02 01:25:23;;;;;;;16.48;10.30;;;19.10;64.00;;;;;;5047080;28;20277;-33
2023/10/02 01:27:53;;;;;;;19.63;10.52;;;19.10;64.00;;;;;;5048376;28;20207;-32
2023/10/02 01:30:24;;;;;;;17.23;10.65;;;19.10;64.10;;;;;;5048100;28;20212;-32
2023/10/02 01:35:48;;;;;;;19.65;10.52;;;19.10;64.20;;;;;;5048290;28;20688;-32
2023/10/02 01:38:24;;;;;;;21.80;10.95;;;19.10;64.20;;;;;;5048129;28;20210;-32
2023/10/02 01:40:54;;;;;;;21.13;10.13;;;19.00;64.20;;;;;;5048415;28;20343;-32
2023/10/02 01:43:27;;;;;;;19.60;10.90;;;19.00;64.20;;;;;;5047948;28;20856;-32
2023/10/02 01:45:57;;;;;;;22.20;11.93;;;19.00;64.20;;;;;;5046539;28;20200;-33
2023/10/02 01:48:40;;;;;;;19.70;10.35;;;19.00;64.30;;;;;;5047781;28;20754;-32
2023/10/02 01:51:27;;;;;;;18.88;10.63;;;19.00;64.30;;;;;;5047887;28;20200;-32
2023/10/02 01:54:02;;;;;;;19.65;10.48;;;19.00;64.30;;;;;;5047466;28;20310;-33
2023/10/02 01:56:38;;;;;;;19.67;11.55;;;19.00;64.30;;;;;;5047856;28;20284;-32
2023/10/02 01:59:09;;;;;;;19.10;10.82;;;19.00;64.40;;;;;;5047751;28;20682;-32
2023/10/02 02:01:46;;;;;;;19.95;10.48;;;18.90;65.10;;;;;;5047823;28;20247;-33
2023/10/02 02:04:17;;;;;;;21.63;11.13;;;19.00;64.40;;;;;;5045864;28;20251;-32
2023/10/02 02:06:51;;;;;;;19.60;11.43;;;18.90;64.40;;;;;;5046184;28;20674;-33
2023/10/02 02:09:25;;;;;;;19.85;10.93;;;18.90;64.50;;;;;;5047670;28;20191;-33
2023/10/02 02:12:05;;;;;;;20.63;10.60;;;18.90;64.40;;;;;;5047491;28;20231;-32
2023/10/02 02:14:40;;;;;;;15.40;9.95;;;18.90;64.50;;;;;;5045956;28;20765;-32
2023/10/02 02:17:10;;;;;;;18.50;10.98;;;18.90;64.50;;;;;;5047599;28;20204;-33
2023/10/02 02:19:47;;;;;;;20.13;11.70;;;18.90;64.50;;;;;;5029611;28;20207;-32
2023/10/02 02:22:18;;;;;;;23.25;11.30;;;18.90;64.60;;;;;;5047151;28;20223;-32
2023/10/02 02:24:47;;;;;;;19.58;11.00;;;18.80;64.60;;;;;;5046933;28;20228;-32
2023/10/02 02:27:19;;;;;;;19.60;10.27;;;18.90;64.60;;;;;;5047058;28;20295;-32
2023/10/02 02:29:50;;;;;;;19.10;10.20;;;18.80;64.60;;;;;;5047190;28;20196;-33
2023/10/02 02:32:36;;;;;;;20.30;11.13;;;18.80;64.60;;;;;;5047215;28;20274;-32
2023/10/02 02:35:08;;;;;;;19.23;11.00;;;18.80;64.60;;;;;;5047182;28;20215;-32
2023/10/02 02:37:35;;;;;;;20.38;10.73;;;18.80;64.70;;;;;;5047856;28;20591;-32
2023/10/02 02:42:51;;;;;;;16.90;10.38;;;18.80;64.70;;;;;;5046901;28;20203;-32
2023/10/02 02:45:28;;;;;;;20.83;10.38;;;18.80;64.70;;;;;;5045231;28;20219;-32
2023/10/02 02:48:10;;;;;;;20.20;10.23;;;18.80;64.80;;;;;;5046581;28;20275;-32
2023/10/02 02:50:47;;;;;;;20.23;10.95;;;18.80;64.80;;;;;;5045240;28;20200;-33
2023/10/02 02:53:17;;;;;;;18.80;10.23;;;18.80;64.80;;;;;;5046677;28;20219;-32
2023/10/02 02:55:45;;;;;;;20.02;11.10;;;18.80;64.90;;;;;;5045151;28;20207;-32
2023/10/02 02:58:13;;;;;;;20.83;10.35;;;18.80;64.90;;;;;;5044985;28;20640;-32
2023/10/02 03:00:40;;;;;;;21.80;11.15;;;18.80;64.90;;;;;;5044747;28;20244;-32
2023/10/02 03:05:58;;;;;;;20.13;10.95;;;18.70;64.90;;;;;;5046008;28;20563;-32
2023/10/02 03:08:39;;;;;;;21.35;10.98;;;18.70;64.90;;;;;;5044842;28;20243;-32
2023/10/02 03:11:06;;;;;;;17.65;10.02;;;18.70;64.90;;;;;;5044757;28;20361;-32
2023/10/02 03:13:34;;;;;;;18.88;11.15;;;18.70;64.90;;;;;;5046630;28;20220;-32
2023/10/02 03:16:17;;;;;;;19.00;10.55;;;18.70;64.90;;;;;;5046699;28;20510;-32
2023/10/02 03:18:48;;;;;;;19.23;11.02;;;18.70;65.00;;;;;;5046327;28;20619;-32
2023/10/02 03:21:21;;;;;;;18.65;10.27;;;18.70;65.00;;;;;;5044708;28;20257;-32
2023/10/02 03:23:50;;;;;;;17.67;10.82;;;18.70;65.00;;;;;;5044669;28;20735;-32
2023/10/02 03:26:37;;;;;;;21.00;10.90;;;18.60;65.00;;;;;;5044577;28;20211;-32
2023/10/02 03:29:21;;;;;;;22.70;11.00;;;18.70;65.10;;;;;;5044583;28;20216;-32
2023/10/02 03:31:52;;;;;;;21.38;10.88;;;18.60;65.10;;;;;;5045674;28;20212;-32
2023/10/02 03:34:27;;;;;;;19.33;10.95;;;18.60;65.10;;;;;;5045874;28;20224;-32
2023/10/02 03:40:25;;;;;;;19.15;11.02;;;18.60;65.10;;;;;;5045943;28;20330;-32
2023/10/02 03:42:36;;;;;;;18.33;10.50;;;18.60;65.10;;;;;;5039744;28;20231;-32
2023/10/02 03:45:07;;;;;;;16.98;10.18;;;18.50;65.10;;;;;;5045550;28;20343;-32
2023/10/02 03:47:34;;;;;;;18.60;11.27;;;18.50;65.10;;;;;;5044122;28;20593;-32
2023/10/02 03:50:11;;;;;;;21.13;11.05;;;18.50;65.20;;;;;;5046251;28;20621;-32
2023/10/02 03:52:45;;;;;;;20.55;10.52;;;18.50;65.30;;;;;;5044593;28;20275;-32
2023/10/02 03:55:15;;;;;;;20.67;10.80;;;18.50;65.30;;;;;;5045805;28;20193;-32
2023/10/02 04:00:19;;;;;;;18.63;10.93;;;18.40;65.20;;;;;;5045105;28;20239;-33
2023/10/02 04:02:53;;;;;;;21.70;11.32;;;18.40;65.30;;;;;;5045664;28;20270;-32
2023/10/02 04:05:32;;;;;;;21.25;11.07;;;18.40;65.30;;;;;;5043388;28;20235;-33
2023/10/02 04:08:31;;;;;;;18.33;10.57;;;18.40;65.30;;;;;;5043865;28;20220;-32
2023/10/02 04:11:03;;;;;;;22.00;11.75;;;18.40;65.40;;;;;;5045261;28;20561;-32
2023/10/02 04:13:39;;;;;;;20.75;11.05;;;18.40;65.40;;;;;;5044906;28;20266;-32
2023/10/02 04:19:02;;;;;;;23.13;11.52;;;18.30;65.40;;;;;;5043190;28;20279;-32
2023/10/02 04:21:33;;;;;;;19.38;11.55;;;18.30;65.40;;;;;;5043951;28;20226;-32
2023/10/02 04:24:04;;;;;;;18.55;10.85;;;18.30;65.40;;;;;;5043534;28;20220;-32
2023/10/02 04:26:33;;;;;;;20.38;10.82;;;18.20;65.40;;;;;;5045318;28;20200;-32
2023/10/02 04:32:04;;;;;;;18.55;10.50;;;18.20;65.40;;;;;;5044989;28;20231;-32
2023/10/02 04:34:36;;;;;;;19.48;10.95;;;18.20;65.50;;;;;;5043270;28;20720;-32
2023/10/02 04:37:19;;;;;;;21.27;11.30;;;18.20;65.50;;;;;;5043424;28;20827;-32
2023/10/02 04:40:07;;;;;;;23.67;10.85;;;18.20;65.60;;;;;;5044734;28;20612;-32
2023/10/02 04:45:25;;;;;;;24.35;11.80;;;18.10;65.50;;;;;;5043223;28;20647;-34
2023/10/02 04:47:58;;;;;;;20.67;11.80;;;18.10;65.60;;;;;;5044765;28;20196;-32
2023/10/02 04:53:04;;;;;;;19.58;11.55;;;18.10;65.60;;;;;;5044762;28;20188;-32
2023/10/02 04:55:42;;;;;;;19.55;11.05;;;18.10;65.70;;;;;;5044814;28;20212;-32
2023/10/02 04:58:18;;;;;;;20.10;11.13;;;18.00;65.60;;;;;;5043129;28;20294;-32
2023/10/02 05:03:49;;;;;;;19.05;11.27;;;18.00;65.70;;;;;;5044939;28;20291;-32
2023/10/02 05:06:16;;;;;;;22.52;11.18;;;18.00;65.70;;;;;;5044764;28;20278;-32
2023/10/02 05:11:24;;;;;;;22.30;11.82;;;18.00;65.70;;;;;;5044553;28;20196;-32
2023/10/02 05:16:32;;;;;;;22.53;12.60;;;17.90;65.70;;;;;;5044674;28;20212;-32
2023/10/02 05:19:04;;;;;;;20.63;11.57;;;17.90;65.70;;;;;;5044374;28;20219;-32
2023/10/02 05:21:55;;;;;;;24.85;11.95;;;17.90;65.80;;;;;;5044820;28;20619;-32
2023/10/02 05:24:23;;;;;;;22.42;12.40;;;17.90;65.80;;;;;;5044159;28;20617;-31
2023/10/02 05:26:50;;;;;;;23.17;12.90;;;17.80;65.80;;;;;;5026630;28;20200;-31
2023/10/02 05:29:35;;;;;;;20.52;11.27;;;17.80;65.80;;;;;;5045493;28;20295;-32
2023/10/02 05:32:19;;;;;;;26.73;12.40;;;17.80;66.00;;;;;;5048647;28;20193;-31
2023/10/02 05:35:04;;;;;;;27.90;12.65;;;17.80;65.90;;;;;;5047757;28;20243;-31
2023/10/02 05:37:42;;;;;;;25.55;12.25;;;17.80;66.00;;;;;;5048131;28;20289;-31
2023/10/02 05:45:39;;;;;;;28.83;12.75;;;17.70;66.10;;;;;;5047907;28;20220;-31
2023/10/02 05:50:57;;;;;;;33.65;13.60;;;17.70;66.00;;;;;;5047960;28;20289;-32
2023/10/02 05:53:26;;;;;;;28.65;12.73;;;17.70;66.10;;;;;;5046037;28;20210;-32
2023/10/02 05:55:57;;;;;;;33.53;14.83;;;17.70;66.10;;;;;;5047736;28;20285;-31
2023/10/02 05:58:27;;;;;;;30.67;14.00;;;17.70;66.20;;;;;;5046250;28;20238;-31
2023/10/02 06:01:03;;;;;;;27.88;13.50;;;17.70;66.20;;;;;;5046049;28;20596;-33
2023/10/02 06:03:35;;;;;;;29.98;13.48;;;17.70;66.20;;;;;;5047442;28;20204;-32
2023/10/02 06:06:18;;;;;;;28.08;14.57;;;17.70;66.30;;;;;;5045674;28;20330;-32
2023/10/02 06:09:00;;;;;;;24.47;13.27;;;17.70;66.30;;;;;;5047707;28;20206;-31
2023/10/02 06:11:33;;;;;;;29.55;13.48;;;17.70;66.40;;;;;;5047675;28;20199;-31
2023/10/02 06:14:09;;;;;;;28.52;14.13;;;17.70;66.40;;;;;;5047642;28;20311;-31
2023/10/02 06:16:41;;;;;;;28.10;14.18;;;17.70;66.50;;;;;;5045954;28;20215;-31
2023/10/02 06:19:13;;;;;;;29.58;14.40;;;17.70;66.40;;;;;;5048133;28;20196;-31
2023/10/02 06:24:28;;;;;;;26.65;13.32;;;17.70;66.50;;;;;;5047527;28;20278;-31
2023/10/02 06:27:04;;;;;;;25.67;13.70;;;17.70;66.50;;;;;;5045427;28;20228;-31
2023/10/02 06:29:35;;;;;;;31.13;13.93;;;17.70;66.50;;;;;;5046839;28;20196;-32
2023/10/02 06:32:11;;;;;;;33.90;13.68;;;17.70;66.50;;;;;;5029194;28;20204;-31
2023/10/02 06:34:43;;;;;;;39.30;14.98;;;17.80;66.70;;;;;;5046748;28;20217;-32
2023/10/02 06:37:19;;;;;;;40.75;15.80;;;17.80;66.60;;;;;;5046730;28;20213;-32
2023/10/02 06:40:05;;;;;;;37.08;15.20;;;17.80;66.80;;;;;;5045204;28;20200;-32
2023/10/02 06:42:33;;;;;;;38.22;15.15;;;17.80;67.50;;;;;;5044646;28;20223;-32
2023/10/02 06:45:09;;;;;;;35.95;14.55;;;17.80;66.80;;;;;;5044969;28;20234;-32
2023/10/02 06:47:36;;;;;;;30.05;13.93;;;17.80;67.60;;;;;;5044980;28;20223;-31
2023/10/02 06:50:21;;;;;;;37.67;14.93;;;17.80;66.80;;;;;;5044774;28;20211;-32
2023/10/02 06:52:49;;;;;;;29.13;14.65;;;17.90;66.90;;;;;;5045370;28;20202;-32
2023/10/02 06:55:17;;;;;;;31.48;15.15;;;17.90;66.90;;;;;;5044849;28;20211;-32
2023/10/02 06:57:52;;;;;;;40.05;15.25;;;17.90;67.00;;;;;;5047003;28;20701;-32
2023/10/02 07:00:25;;;;;;;34.13;14.23;;;18.00;67.10;;;;;;5045905;28;20247;-32
2023/10/02 07:02:58;;;;;;;29.83;14.02;;;18.00;67.10;;;;;;5046527;28;20261;-32
2023/10/02 07:05:35;;;;;;;31.25;14.85;;;18.00;67.10;;;;;;5045082;28;20222;-31
2023/10/02 07:08:17;;;;;;;31.30;14.88;;;18.00;67.10;;;;;;5044570;28;20293;-32
2023/10/02 07:10:47;;;;;;;30.70;13.40;;;18.10;67.20;;;;;;5045940;28;20226;-32
2023/10/02 07:13:20;;;;;;;30.53;14.67;;;18.10;67.30;;;;;;5044647;28;20227;-32
2023/10/02 07:15:55;;;;;;;32.73;14.93;;;18.20;67.30;;;;;;5045899;28;20958;-32
2023/10/02 07:18:37;;;;;;;30.13;14.53;;;18.20;67.30;;;;;;5045987;28;20211;-34
2023/10/02 07:21:07;;;;;;;32.13;15.03;;;18.20;67.40;;;;;;5044320;28;20212;-32
2023/10/02 07:23:39;;;;;;;29.77;13.90;;;18.20;67.40;;;;;;5044493;28;20758;-32
2023/10/02 07:26:49;;;;;;;29.30;13.57;;;18.30;67.40;;;;;;5044204;28;20224;-32
2023/10/02 07:29:09;;;;;;;29.50;13.65;;;18.40;67.60;;;;;;5044678;28;20232;-32
2023/10/02 07:31:36;;;;;;;25.10;13.32;;;18.40;67.50;;;;;;5044443;28;20661;-32
2023/10/02 07:34:07;;;;;;;27.35;13.82;;;18.40;67.50;;;;;;5044953;28;20709;-32
2023/10/02 07:36:44;;;;;;;27.35;13.40;;;18.50;67.60;;;;;;5046177;28;20192;-32
2023/10/02 07:39:35;;;;;;;26.15;13.55;;;18.50;67.60;;;;;;5046192;28;20614;-32
2023/10/02 07:42:00;;;;;;;28.75;13.68;;;18.60;67.60;;;;;;5045715;28;20592;-34
2023/10/02 07:44:36;;;;;;;28.25;14.60;;;18.60;67.70;;;;;;5045460;28;20224;-34
2023/10/02 07:47:20;;;;;;;27.70;14.00;;;18.70;67.70;;;;;;5044552;28;20618;-35
2023/10/02 07:49:55;;;;;;;26.75;13.32;;;18.70;67.70;;;;;;5044024;28;20212;-34
2023/10/02 07:52:35;;;;;;;28.55;13.10;;;18.80;67.70;;;;;;5045500;28;20200;-34
2023/10/02 07:55:10;;;;;;;32.28;13.98;;;18.80;67.70;;;;;;5043960;28;20228;-34
2023/10/02 07:57:38;;;;;;;28.95;13.65;;;18.90;67.80;;;;;;5045656;28;20579;-34
2023/10/02 08:02:53;;;;;;;25.17;12.43;;;19.00;67.80;;;;;;5043987;28;20277;-34
2023/10/02 08:05:21;;;;;;;26.88;13.35;;;19.00;67.80;;;;;;5043631;28;20235;-34
2023/10/02 08:08:08;;;;;;;26.65;13.40;;;19.10;67.80;;;;;;5043573;28;20212;-34
2023/10/02 08:10:52;;;;;;;27.95;13.68;;;19.20;67.90;;;;;;5045656;28;20693;-34
2023/10/02 08:13:32;;;;;;;28.50;13.10;;;19.20;67.90;;;;;;5043978;28;20231;-34
2023/10/02 08:16:14;;;;;;;34.33;13.88;;;19.30;67.80;;;;;;5028774;28;20212;-34
2023/10/02 08:18:58;;;;;;;34.38;13.85;;;19.40;68.00;;;;;;5043532;28;20662;-34
2023/10/02 08:21:36;;;;;;;26.50;13.55;;;19.40;68.00;;;;;;5044808;28;20196;-34
2023/10/02 08:24:05;;;;;;;28.13;13.52;;;19.50;68.10;;;;;;5043377;28;20667;-34
2023/10/02 08:26:38;;;;;;;23.98;12.98;;;19.60;68.10;;;;;;5043383;28;20244;-34
2023/10/02 08:29:11;;;;;;;23.02;13.02;;;19.60;68.00;;;;;;5045330;28;20544;-34
2023/10/02 08:31:45;;;;;;;27.35;12.90;;;19.70;68.10;;;;;;5045210;28;20204;-34
2023/10/02 08:34:19;;;;;;;26.67;13.73;;;19.80;68.10;;;;;;5044749;28;20211;-34
2023/10/02 08:37:04;;;;;;;28.33;13.15;;;19.80;68.00;;;;;;5044834;28;20573;-35
2023/10/02 08:39:36;;;;;;;23.48;12.82;;;19.90;68.10;;;;;;5043249;28;20208;-30
2023/10/02 08:42:09;;;;;;;24.58;12.32;;;19.90;68.00;;;;;;5044710;28;20188;-30
2023/10/02 08:44:40;;;;;;;28.88;13.60;;;20.00;68.10;;;;;;5043348;28;20240;-30
2023/10/02 08:47:12;;;;;;;24.42;12.85;;;20.10;68.10;;;;;;5044943;28;20201;-31
2023/10/02 08:49:47;;;;;;;24.67;12.88;;;20.10;68.10;;;;;;5044881;28;20204;-30
2023/10/02 08:52:14;;;;;;;24.13;12.88;;;20.20;68.10;;;;;;5044591;28;20200;-30
2023/10/02 08:54:44;;;;;;;26.33;13.60;;;20.30;68.20;;;;;;5044542;28;20212;-30
2023/10/02 08:57:12;;;;;;;25.67;13.38;;;20.30;68.20;;;;;;5044353;28;20196;-30
2023/10/02 08:59:39;;;;;;;31.77;15.07;;;20.40;68.20;;;;;;5044401;28;20204;-30
2023/10/02 09:02:14;;;;;;;29.60;14.43;;;20.50;68.20;;;;;;5043010;28;20319;-30
2023/10/02 09:04:55;;;;;;;27.65;13.73;;;20.50;68.20;;;;;;5044743;28;20216;-31
2023/10/02 09:08:01;;;;;;;26.15;12.93;;;20.60;68.10;;;;;;5048407;28;20588;-30
2023/10/02 09:10:30;;;;;;;30.08;13.95;;;20.70;68.20;;;;;;5048507;28;20208;-30
2023/10/02 09:13:09;;;;;;;24.10;13.60;;;20.70;68.10;;;;;;5048790;28;20203;-30
2023/10/02 09:15:37;;;;;;;31.20;13.95;;;20.80;68.30;;;;;;5046671;28;20673;-30
2023/10/02 09:18:22;;;;;;;24.58;12.25;;;20.80;68.10;;;;;;5048166;28;20224;-30
2023/10/02 09:20:53;;;;;;;30.70;15.15;;;20.90;68.20;;;;;;5048371;28;20235;-30
2023/10/02 09:23:24;;;;;;;29.13;13.93;;;21.00;68.20;;;;;;5048098;28;20212;-31
2023/10/02 09:26:16;;;;;;;28.27;14.02;;;21.00;68.10;;;;;;5048640;28;20220;-30
2023/10/02 09:28:58;;;;;;;28.73;14.45;;;21.10;68.90;;;;;;5048459;28;20204;-30
2023/10/02 09:31:34;;;;;;;24.77;13.63;;;21.20;68.10;;;;;;5047863;28;20299;-30
2023/10/02 09:34:16;;;;;;;23.98;13.35;;;21.20;68.10;;;;;;5047637;28;20220;-30
2023/10/02 09:37:11;;;;;;;27.90;13.98;;;21.30;68.20;;;;;;5048004;28;20235;-30
2023/10/02 09:40:02;;;;;;;26.88;13.35;;;21.30;68.10;;;;;;5047655;28;20239;-30
2023/10/02 09:42:33;;;;;;;24.45;14.07;;;21.40;68.10;;;;;;5046204;28;20204;-30
2023/10/02 09:45:08;;;;;;;27.35;13.70;;;21.50;68.20;;;;;;5047651;28;20216;-30
2023/10/02 09:47:37;;;;;;;25.98;12.98;;;21.50;68.20;;;;;;5047834;28;20216;-28
2023/10/02 09:50:25;;;;;;;21.95;12.65;;;21.60;68.20;;;;;;5046471;28;20196;-29
2023/10/02 09:53:25;;;;;;;26.58;14.35;;;21.60;68.10;;;;;;5047523;28;20204;-28
2023/10/02 09:56:08;;;;;;;26.05;13.48;;;21.70;68.20;;;;;;5042495;28;20235;-28
2023/10/02 09:59:12;;;;;;;26.90;13.68;;;21.80;68.20;;;;;;5047968;28;20188;-28
2023/10/02 10:02:08;;;;;;;25.30;13.63;;;21.80;68.20;;;;;;5047536;28;20318;-28
2023/10/02 10:08:16;;;;;;;27.88;13.10;;;22.00;68.20;;;;;;5048083;28;20652;-28
2023/10/02 10:10:47;;;;;;;27.42;13.88;;;22.00;68.20;;;;;;5047671;28;20242;-28
2023/10/02 10:13:47;;;;;;;27.15;13.98;;;22.10;68.30;;;;;;5047448;28;20732;-29
2023/10/02 10:16:20;;;;;;;26.48;13.05;;;22.20;68.30;;;;;;5044688;28;20597;-28
2023/10/02 10:22:00;;;;;;;26.05;13.77;;;22.30;68.30;;;;;;5047197;28;20232;-28
2023/10/02 10:24:57;;;;;;;25.85;13.57;;;22.40;68.20;;;;;;5045307;28;20299;-28
2023/10/02 10:27:39;;;;;;;27.58;14.50;;;22.50;68.30;;;;;;5045196;28;20205;-28
2023/10/02 10:30:19;;;;;;;25.58;13.63;;;22.60;68.40;;;;;;5046655;28;20269;-28
2023/10/02 10:32:47;;;;;;;27.92;14.48;;;22.60;68.30;;;;;;5045220;28;20200;-28
2023/10/02 10:35:52;;;;;;;25.52;13.70;;;22.70;68.30;;;;;;5045084;28;20208;-28
2023/10/02 10:38:25;;;;;;;27.52;13.57;;;22.80;68.30;;;;;;5029516;28;20212;-28
2023/10/02 10:41:15;;;;;;;25.90;13.52;;;22.80;68.20;;;;;;5046885;28;20216;-28
2023/10/02 10:46:37;;;;;;;25.58;14.77;;;23.00;68.30;;;;;;5046699;28;20235;-29
2023/10/02 10:49:10;;;;;;;22.38;12.07;;;23.10;68.30;;;;;;5029175;28;20290;-28
2023/10/02 10:51:40;;;;;;;23.70;13.00;;;23.20;68.30;;;;;;5046830;28;20196;-29
2023/10/02 10:54:19;;;;;;;27.60;13.50;;;23.20;68.30;;;;;;5046289;28;20192;-29
2023/10/02 10:57:22;;;;;;;23.75;14.10;;;23.30;68.20;;;;;;5046496;28;20200;-29
2023/10/02 11:00:25;;;;;;;27.65;14.07;;;23.40;68.20;;;;;;5045984;28;20678;-29
2023/10/02 11:03:11;;;;;;;21.10;12.57;;;23.50;68.20;;;;;;5046246;28;20200;-29
2023/10/02 11:05:39;;;;;;;26.27;13.27;;;23.50;68.10;;;;;;5046228;28;20319;-28
2023/10/02 11:08:23;;;;;;;26.88;13.85;;;23.60;68.20;;;;;;5044492;28;20616;-29
2023/10/02 11:11:30;;;;;;;26.13;14.32;;;23.70;68.10;;;;;;5044707;28;20273;-28
2023/10/02 11:14:02;;;;;;;28.90;14.02;;;23.70;68.10;;;;;;5044726;28;20196;-28
2023/10/02 11:16:31;;;;;;;28.00;13.52;;;23.80;68.10;;;;;;5046037;28;20215;-30
2023/10/02 11:22:15;;;;;;;24.63;12.93;;;23.90;68.00;;;;;;5046006;28;20254;-28
2023/10/02 11:24:55;;;;;;;25.38;13.65;;;23.90;67.80;;;;;;5045992;28;20568;-28
2023/10/02 11:27:23;;;;;;;24.65;13.57;;;24.00;67.70;;;;;;5043636;28;20835;-28
2023/10/02 11:30:02;;;;;;;27.55;14.35;;;24.00;67.70;;;;;;5045974;28;20196;-28
2023/10/02 11:32:53;;;;;;;24.58;13.38;;;24.10;67.70;;;;;;5043929;28;20204;-28
2023/10/02 11:35:37;;;;;;;30.25;14.52;;;24.20;67.70;;;;;;5045143;28;20257;-28
2023/10/02 11:38:09;;;;;;;27.83;14.80;;;24.20;67.70;;;;;;5045152;28;20722;-30
2023/10/02 11:40:43;;;;;;;29.40;14.35;;;24.20;67.70;;;;;;5045437;28;20319;-30
2023/10/02 11:43:15;;;;;;;25.83;13.77;;;24.30;67.70;;;;;;5046167;28;20208;-30
2023/10/02 11:45:42;;;;;;;27.02;14.75;;;24.30;67.60;;;;;;5043481;28;20563;-30
2023/10/02 11:48:10;;;;;;;28.00;14.23;;;24.40;67.60;;;;;;5044094;28;20216;-31
2023/10/02 11:50:39;;;;;;;25.25;14.50;;;24.40;67.50;;;;;;5045100;28;20646;-28
2023/10/02 11:53:06;;;;;;;26.13;14.30;;;24.50;67.50;;;;;;5043785;28;20303;-33
2023/10/02 11:55:34;;;;;;;24.63;13.98;;;24.50;68.20;;;;;;5044354;28;20292;-32
2023/10/02 11:58:04;;;;;;;26.48;14.38;;;24.60;67.50;;;;;;5045077;28;20212;-33
2023/10/02 12:00:31;;;;;;;29.30;14.25;;;24.70;67.40;;;;;;5045104;28;20250;-34
2023/10/02 12:03:02;;;;;;;31.67;15.75;;;24.70;67.50;;;;;;5043656;28;20788;-32
2023/10/02 12:05:36;;;;;;;28.08;14.95;;;24.80;67.50;;;;;;5043441;28;20232;-32
2023/10/02 12:08:07;;;;;;;26.85;14.70;;;24.80;67.30;;;;;;5027077;28;20674;-33
2023/10/02 12:10:39;;;;;;;27.50;14.43;;;24.80;67.20;;;;;;5042667;28;20200;-32
2023/10/02 12:13:06;;;;;;;24.83;14.00;;;24.90;67.20;;;;;;5042988;28;20678;-32
2023/10/02 12:15:35;;;;;;;28.05;14.50;;;25.00;67.20;;;;;;5044176;28;20224;-33
2023/10/02 12:18:05;;;;;;;26.67;13.75;;;25.00;67.00;;;;;;5044420;28;20219;-32
2023/10/02 12:20:39;;;;;;;25.52;14.55;;;25.10;67.10;;;;;;5044198;28;20200;-32
2023/10/02 12:23:07;;;;;;;26.48;14.98;;;25.10;67.10;;;;;;5043936;28;20606;-33
2023/10/02 12:25:36;;;;;;;26.80;14.68;;;25.20;67.10;;;;;;5042901;28;20418;-32
2023/10/02 12:28:06;;;;;;;28.60;15.05;;;25.20;67.10;;;;;;5043384;28;20212;-32
2023/10/02 12:30:34;;;;;;;28.45;15.23;;;25.30;67.30;;;;;;5043470;28;20598;-32
2023/10/02 12:33:03;;;;;;;27.98;14.30;;;25.40;67.20;;;;;;5044809;28;20605;-33
2023/10/02 12:35:33;;;;;;;32.92;15.10;;;25.50;67.10;;;;;;5044959;28;20306;-33
2023/10/02 12:38:00;;;;;;;27.63;14.45;;;25.50;67.10;;;;;;5044528;28;20204;-33
2023/10/02 12:40:31;;;;;;;25.15;14.45;;;25.60;67.10;;;;;;5043960;28;20689;-33
2023/10/02 12:43:00;;;;;;;28.30;14.80;;;25.60;67.00;;;;;;5044599;28;20277;-33
2023/10/02 12:45:35;;;;;;;26.35;15.10;;;25.70;66.90;;;;;;5042885;28;20227;-33
2023/10/02 12:48:06;;;;;;;30.52;16.50;;;25.70;66.90;;;;;;5044531;28;20215;-33
2023/10/02 12:50:39;;;;;;;25.42;15.05;;;25.80;67.00;;;;;;5043225;28;20665;-33
2023/10/02 12:53:08;;;;;;;27.40;15.23;;;25.80;66.60;;;;;;5026566;28;20227;-33
2023/10/02 12:55:36;;;;;;;26.08;14.98;;;25.90;66.70;;;;;;5044734;28;20204;-28
2023/10/02 12:58:06;;;;;;;26.58;15.85;;;25.90;66.80;;;;;;5044508;28;20200;-28
2023/10/02 13:00:33;;;;;;;29.77;16.08;;;26.00;66.60;;;;;;5044031;28;20232;-28
2023/10/02 13:03:02;;;;;;;26.33;14.65;;;26.00;66.30;;;;;;5042792;28;20777;-28
2023/10/02 13:05:29;;;;;;;27.15;15.15;;;26.10;66.30;;;;;;5026637;28;20226;-28
2023/10/02 13:07:57;;;;;;;28.67;15.45;;;26.10;66.20;;;;;;5044716;28;20200;-27
2023/10/02 13:10:24;;;;;;;28.98;16.70;;;26.10;66.00;;;;;;5026488;28;20572;-26
2023/10/02 13:12:52;;;;;;;30.52;16.40;;;26.10;65.90;;;;;;5044391;28;20527;-27
2023/10/02 13:15:19;;;;;;;28.67;16.20;;;26.10;65.80;;;;;;5042617;28;20258;-27
2023/10/02 13:17:46;;;;;;;28.63;15.52;;;26.20;66.00;;;;;;5044139;28;20200;-27
2023/10/02 13:20:14;;;;;;;30.70;16.40;;;26.20;66.40;;;;;;5042933;28;20271;-27
2023/10/02 13:22:41;;;;;;;28.48;15.98;;;26.20;65.50;;;;;;5044164;28;20207;-27
2023/10/02 13:25:11;;;;;;;25.52;15.35;;;26.30;65.70;;;;;;5044400;28;20279;-27
2023/10/02 13:27:42;;;;;;;26.75;15.45;;;26.30;65.70;;;;;;5042641;28;20224;-28
2023/10/02 13:30:12;;;;;;;28.88;15.73;;;26.30;65.60;;;;;;5042209;28;20316;-28
2023/10/02 13:32:42;;;;;;;28.55;15.85;;;26.30;65.40;;;;;;5044195;28;20208;-27
2023/10/02 13:35:09;;;;;;;28.67;15.27;;;26.40;65.50;;;;;;5042555;28;20193;-27
2023/10/02 13:37:39;;;;;;;27.65;15.77;;;26.40;65.50;;;;;;5044246;28;20223;-32
2023/10/02 13:40:26;;;;;;;28.20;15.88;;;26.40;65.30;;;;;;5044093;28;20212;-33
2023/10/02 13:42:53;;;;;;;28.15;17.02;;;26.50;65.20;;;;;;5044270;28;20204;-33
2023/10/02 13:45:25;;;;;;;31.58;17.05;;;26.50;65.40;;;;;;5044372;28;20220;-33
2023/10/02 13:47:52;;;;;;;30.85;15.85;;;26.50;65.20;;;;;;5044244;28;20208;-35
2023/10/02 13:50:22;;;;;;;33.95;16.58;;;26.50;65.20;;;;;;5043725;28;20583;-35
2023/10/02 13:52:54;;;;;;;28.73;16.05;;;26.60;65.30;;;;;;5047376;28;20658;-32
2023/10/02 13:55:26;;;;;;;29.70;16.45;;;26.60;65.30;;;;;;5047456;28;20212;-33
2023/10/02 13:57:56;;;;;;;33.92;16.60;;;26.60;65.20;;;;;;5047443;28;20192;-33
2023/10/02 14:00:26;;;;;;;29.70;16.77;;;26.70;65.10;;;;;;5047104;28;20232;-33
2023/10/02 14:02:59;;;;;;;28.73;16.45;;;26.70;64.60;;;;;;5047614;28;20699;-33
2023/10/02 14:05:29;;;;;;;27.52;15.45;;;26.70;64.50;;;;;;5014190;28;21078;-33
2023/10/02 14:07:57;;;;;;;32.65;15.93;;;26.70;64.50;;;;;;5045999;28;20204;-33
2023/10/02 14:10:26;;;;;;;27.83;15.85;;;26.70;64.60;;;;;;5047163;28;20200;-34